createdAt,value
2018-07-03T00:00:44.611Z,13.01
2018-07-03T00:01:44.503Z,12.98
2018-07-03T00:02:44.410Z,13.01
2018-07-03T00:03:44.307Z,13.00
2018-07-03T00:04:44.201Z,12.97
2018-07-03T00:05:44.109Z,12.98
2018-07-03T00:06:44.013Z,12.98
2018-07-03T00:07:43.923Z,12.90
2018-07-03T00:08:43.812Z,12.90
2018-07-03T00:09:43.722Z,12.94
2018-07-03T00:10:43.622Z,12.85
2018-07-03T00:11:43.519Z,12.80
2018-07-03T00:12:43.430Z,12.83
2018-07-03T00:13:43.327Z,12.82
2018-07-03T00:14:43.231Z,12.76
2018-07-03T00:15:43.128Z,12.73
2018-07-03T00:16:43.028Z,12.76
2018-07-03T00:17:42.938Z,12.75
2018-07-03T00:18:42.829Z,12.73
2018-07-03T00:19:42.737Z,12.75
2018-07-03T00:20:42.639Z,12.76
2018-07-03T00:21:42.546Z,12.75
2018-07-03T00:22:42.448Z,12.75
2018-07-03T00:23:42.343Z,12.64
2018-07-03T00:24:42.246Z,12.60
2018-07-03T00:25:42.142Z,12.60
2018-07-03T00:26:42.056Z,12.62
2018-07-03T00:27:41.953Z,12.62
2018-07-03T00:28:41.853Z,12.67
2018-07-03T00:29:41.761Z,12.60
2018-07-03T00:30:41.654Z,12.58
2018-07-03T00:31:41.563Z,12.62
2018-07-03T00:32:41.461Z,12.55
2018-07-03T00:33:41.358Z,12.57
2018-07-03T00:34:41.263Z,12.57
2018-07-03T00:35:41.159Z,12.61
2018-07-03T00:36:41.072Z,12.62
2018-07-03T00:37:40.968Z,12.62
2018-07-03T00:38:40.879Z,12.57
2018-07-03T00:39:40.777Z,12.62
2018-07-03T00:40:40.672Z,12.58
2018-07-03T00:41:40.580Z,12.61
2018-07-03T00:42:40.480Z,12.50
2018-07-03T00:43:40.377Z,12.57
2018-07-03T00:44:40.296Z,12.53
2018-07-03T00:45:40.180Z,12.47
2018-07-03T00:46:40.075Z,12.50
2018-07-03T00:47:39.984Z,12.46
2018-07-03T00:48:39.890Z,12.50
2018-07-03T00:49:39.794Z,12.46
2018-07-03T00:50:39.936Z,12.47
2018-07-03T00:51:39.584Z,12.46
2018-07-03T00:52:39.491Z,12.42
2018-07-03T00:53:39.387Z,12.43
2018-07-03T00:54:39.301Z,12.40
2018-07-03T00:55:39.198Z,12.42
2018-07-03T00:56:39.090Z,12.39
2018-07-03T00:57:39.000Z,12.36
2018-07-03T00:58:38.900Z,12.36
2018-07-03T00:59:38.809Z,12.39
2018-07-03T01:00:38.708Z,12.42
2018-07-03T01:01:38.604Z,12.42
2018-07-03T01:02:38.511Z,12.31
2018-07-03T01:03:38.443Z,12.42
2018-07-03T01:04:38.305Z,12.35
2018-07-03T01:05:38.214Z,12.37
2018-07-03T01:06:38.107Z,12.39
2018-07-03T01:07:38.009Z,12.32
2018-07-03T01:08:37.916Z,12.39
2018-07-03T01:09:37.813Z,12.42
2018-07-03T01:10:37.724Z,12.31
2018-07-03T01:11:37.621Z,12.32
2018-07-03T01:12:37.514Z,12.27
2018-07-03T01:13:37.424Z,12.35
2018-07-03T01:14:37.325Z,12.35
2018-07-03T01:15:37.233Z,12.31
2018-07-03T01:16:37.127Z,12.29
2018-07-03T01:17:37.024Z,12.28
2018-07-03T01:18:36.929Z,12.29
2018-07-03T01:19:36.827Z,12.27
2018-07-03T01:20:36.730Z,12.25
2018-07-03T01:21:36.638Z,12.22
2018-07-03T01:22:36.532Z,12.25
2018-07-03T01:23:36.441Z,12.24
2018-07-03T01:24:36.335Z,12.24
2018-07-03T01:25:36.232Z,12.28
2018-07-03T01:26:36.145Z,12.20
2018-07-03T01:27:36.042Z,12.21
2018-07-03T01:28:35.940Z,12.20
2018-07-03T01:29:35.848Z,12.18
2018-07-03T01:30:35.740Z,12.18
2018-07-03T01:31:35.641Z,12.21
2018-07-03T01:32:35.547Z,12.21
2018-07-03T01:33:35.444Z,12.06
2018-07-03T01:34:35.346Z,12.04
2018-07-03T01:35:35.255Z,12.09
2018-07-03T01:36:35.145Z,12.09
2018-07-03T01:37:35.061Z,12.17
2018-07-03T01:38:34.955Z,12.10
2018-07-03T01:39:34.853Z,12.12
2018-07-03T01:40:34.764Z,12.12
2018-07-03T01:41:34.660Z,12.20
2018-07-03T01:42:34.553Z,12.09
2018-07-03T01:43:34.463Z,12.09
2018-07-03T01:44:34.363Z,12.09
2018-07-03T01:45:34.273Z,12.00
2018-07-03T01:46:34.165Z,12.09
2018-07-03T01:47:34.061Z,12.07
2018-07-03T01:48:33.960Z,11.95
2018-07-03T01:49:33.864Z,12.07
2018-07-03T01:50:33.765Z,12.02
2018-07-03T01:51:33.675Z,12.02
2018-07-03T01:52:33.570Z,12.06
2018-07-03T01:53:33.470Z,11.94
2018-07-03T01:54:33.379Z,11.90
2018-07-03T01:55:33.276Z,11.84
2018-07-03T01:56:33.170Z,11.90
2018-07-03T01:57:33.080Z,11.83
2018-07-03T01:58:32.972Z,11.80
2018-07-03T01:59:32.869Z,11.84
2018-07-03T02:00:33.032Z,11.81
2018-07-03T02:01:32.679Z,11.83
2018-07-03T02:02:32.574Z,11.81
2018-07-03T02:03:32.481Z,11.81
2018-07-03T02:04:32.379Z,11.78
2018-07-03T02:05:32.288Z,11.83
2018-07-03T02:06:32.189Z,11.77
2018-07-03T02:07:32.086Z,11.73
2018-07-03T02:08:31.991Z,11.75
2018-07-03T02:09:31.886Z,11.80
2018-07-03T02:10:31.788Z,11.84
2018-07-03T02:11:31.695Z,11.77
2018-07-03T02:12:31.594Z,11.70
2018-07-03T02:13:31.491Z,11.68
2018-07-03T02:14:31.397Z,11.73
2018-07-03T02:15:31.287Z,11.65
2018-07-03T02:16:31.194Z,11.65
2018-07-03T02:17:31.103Z,11.75
2018-07-03T02:18:30.995Z,11.59
2018-07-03T02:19:30.892Z,11.60
2018-07-03T02:20:30.800Z,11.62
2018-07-03T02:21:30.697Z,11.54
2018-07-03T02:22:30.597Z,11.52
2018-07-03T02:23:30.505Z,11.59
2018-07-03T02:24:30.402Z,11.60
2018-07-03T02:25:30.297Z,11.52
2018-07-03T02:26:30.210Z,11.60
2018-07-03T02:27:30.110Z,11.48
2018-07-03T02:28:30.005Z,11.59
2018-07-03T02:29:29.918Z,11.59
2018-07-03T02:30:29.805Z,11.59
2018-07-03T02:31:29.714Z,11.43
2018-07-03T02:32:29.616Z,11.52
2018-07-03T02:33:29.513Z,11.35
2018-07-03T02:34:29.406Z,11.48
2018-07-03T02:35:29.314Z,11.36
2018-07-03T02:36:29.210Z,11.50
2018-07-03T02:37:29.107Z,11.40
2018-07-03T02:38:29.019Z,11.44
2018-07-03T02:39:28.916Z,11.41
2018-07-03T02:40:28.811Z,11.50
2018-07-03T02:41:28.720Z,11.54
2018-07-03T02:42:28.620Z,11.37
2018-07-03T02:43:28.517Z,11.33
2018-07-03T02:44:28.424Z,11.45
2018-07-03T02:45:28.325Z,11.36
2018-07-03T02:46:28.214Z,11.41
2018-07-03T02:47:28.122Z,11.40
2018-07-03T02:48:28.023Z,11.41
2018-07-03T02:49:27.923Z,11.32
2018-07-03T02:50:27.826Z,11.40
2018-07-03T02:51:27.727Z,11.35
2018-07-03T02:52:27.621Z,11.37
2018-07-03T02:53:27.530Z,11.44
2018-07-03T02:54:27.431Z,11.37
2018-07-03T02:55:27.328Z,11.35
2018-07-03T02:56:27.230Z,11.32
2018-07-03T02:57:27.127Z,11.27
2018-07-03T02:58:27.028Z,11.40
2018-07-03T02:59:26.939Z,11.40
2018-07-03T03:00:26.835Z,11.35
2018-07-03T03:01:26.732Z,11.35
2018-07-03T03:02:26.640Z,11.41
2018-07-03T03:03:26.538Z,11.37
2018-07-03T03:04:26.436Z,11.50
2018-07-03T03:05:26.346Z,11.45
2018-07-03T03:06:26.237Z,11.51
2018-07-03T03:07:26.147Z,11.48
2018-07-03T03:08:26.041Z,11.36
2018-07-03T03:09:25.942Z,11.51
2018-07-03T03:10:26.096Z,11.48
2018-07-03T03:11:25.737Z,11.51
2018-07-03T03:12:25.642Z,11.52
2018-07-03T03:13:25.539Z,11.52
2018-07-03T03:14:25.440Z,11.59
2018-07-03T03:15:25.353Z,11.62
2018-07-03T03:16:25.246Z,11.51
2018-07-03T03:17:25.141Z,11.55
2018-07-03T03:18:25.047Z,11.52
2018-07-03T03:19:24.942Z,11.68
2018-07-03T03:20:24.842Z,11.65
2018-07-03T03:21:24.755Z,11.69
2018-07-03T03:22:24.654Z,11.73
2018-07-03T03:23:24.542Z,11.78
2018-07-03T03:24:24.452Z,11.84
2018-07-03T03:25:24.357Z,11.84
2018-07-03T03:26:24.249Z,11.88
2018-07-03T03:27:24.163Z,11.88
2018-07-03T03:28:24.050Z,11.94
2018-07-03T03:29:23.947Z,12.02
2018-07-03T03:30:23.859Z,12.02
2018-07-03T03:31:23.756Z,12.02
2018-07-03T03:32:23.654Z,12.09
2018-07-03T03:33:23.565Z,12.12
2018-07-03T03:34:23.457Z,12.09
2018-07-03T03:35:23.354Z,12.21
2018-07-03T03:36:23.262Z,12.22
2018-07-03T03:37:23.159Z,12.22
2018-07-03T03:38:23.059Z,12.28
2018-07-03T03:39:22.969Z,12.29
2018-07-03T03:40:22.864Z,12.27
2018-07-03T03:41:22.761Z,12.32
2018-07-03T03:42:22.666Z,12.40
2018-07-03T03:43:22.562Z,12.43
2018-07-03T03:44:22.465Z,12.49
2018-07-03T03:45:22.375Z,12.53
2018-07-03T03:46:22.267Z,12.57
2018-07-03T03:47:22.165Z,12.47
2018-07-03T03:48:22.073Z,12.62
2018-07-03T03:49:21.967Z,12.62
2018-07-03T03:50:21.868Z,12.62
2018-07-03T03:51:21.777Z,12.72
2018-07-03T03:52:21.671Z,12.79
2018-07-03T03:53:21.579Z,12.94
2018-07-03T03:54:21.479Z,13.16
2018-07-03T03:55:21.376Z,13.38
2018-07-03T03:56:21.288Z,13.46
2018-07-03T03:57:21.186Z,13.47
2018-07-03T03:58:21.078Z,13.67
2018-07-03T03:59:21.000Z,13.67
2018-07-03T04:00:20.885Z,13.89
2018-07-03T04:01:20.796Z,13.92
2018-07-03T04:02:20.687Z,13.86
2018-07-03T04:03:20.596Z,14.05
2018-07-03T04:04:20.495Z,14.44
2018-07-03T04:05:20.391Z,15.17
2018-07-03T04:06:20.306Z,15.91
2018-07-03T04:07:20.204Z,16.36
2018-07-03T04:08:20.106Z,16.65
2018-07-03T04:09:20.005Z,16.61
2018-07-03T04:10:19.905Z,16.60
2018-07-03T04:11:19.814Z,16.46
2018-07-03T04:12:19.708Z,16.31
2018-07-03T04:13:19.617Z,16.20
2018-07-03T04:14:19.510Z,15.94
2018-07-03T04:15:19.420Z,15.92
2018-07-03T04:16:19.324Z,15.90
2018-07-03T04:17:19.231Z,15.83
2018-07-03T04:18:19.123Z,15.82
2018-07-03T04:19:19.034Z,15.84
2018-07-03T04:20:19.183Z,15.82
2018-07-03T04:21:18.836Z,15.75
2018-07-03T04:22:18.738Z,15.72
2018-07-03T04:23:18.648Z,15.79
2018-07-03T04:24:18.552Z,15.98
2018-07-03T04:25:18.448Z,16.08
2018-07-03T04:26:18.362Z,16.33
2018-07-03T04:27:18.259Z,16.26
2018-07-03T04:28:18.169Z,16.26
2018-07-03T04:29:18.066Z,16.38
2018-07-03T04:30:17.972Z,16.64
2018-07-03T04:31:17.868Z,16.91
2018-07-03T04:32:17.779Z,17.04
2018-07-03T04:33:17.676Z,17.19
2018-07-03T04:34:17.582Z,17.15
2018-07-03T04:35:17.490Z,17.19
2018-07-03T04:36:17.389Z,17.04
2018-07-03T04:37:17.299Z,16.99
2018-07-03T04:38:17.199Z,16.87
2018-07-03T04:39:17.120Z,16.91
2018-07-03T04:40:17.000Z,17.08
2018-07-03T04:41:16.930Z,17.14
2018-07-03T04:42:16.821Z,17.15
2018-07-03T04:43:16.717Z,17.42
2018-07-03T04:44:16.629Z,17.83
2018-07-03T04:45:16.538Z,18.13
2018-07-03T04:46:16.430Z,18.70
2018-07-03T04:47:16.342Z,19.33
2018-07-03T04:48:16.239Z,19.86
2018-07-03T04:49:16.148Z,20.18
2018-07-03T04:50:16.053Z,20.40
2018-07-03T04:51:15.950Z,20.75
2018-07-03T04:52:15.861Z,21.06
2018-07-03T04:53:15.828Z,21.50
2018-07-03T04:54:15.683Z,21.76
2018-07-03T04:55:15.829Z,22.02
2018-07-03T04:56:15.486Z,22.36
2018-07-03T04:57:15.396Z,22.59
2018-07-03T04:58:15.297Z,22.62
2018-07-03T04:59:15.204Z,22.81
2018-07-03T05:00:15.111Z,23.00
2018-07-03T05:01:15.021Z,23.15
2018-07-03T05:02:14.926Z,23.34
2018-07-03T05:03:14.836Z,23.47
2018-07-03T05:04:14.750Z,23.68
2018-07-03T05:05:14.647Z,23.71
2018-07-03T05:06:14.553Z,23.81
2018-07-03T05:07:14.474Z,23.80
2018-07-03T05:08:14.368Z,23.59
2018-07-03T05:09:14.277Z,23.71
2018-07-03T05:10:14.194Z,23.76
2018-07-03T05:11:14.112Z,24.05
2018-07-03T05:12:14.006Z,23.88
2018-07-03T05:13:13.914Z,23.71
2018-07-03T05:14:13.828Z,23.86
2018-07-03T05:15:13.736Z,23.91
2018-07-03T05:16:13.648Z,23.92
2018-07-03T05:17:13.557Z,23.96
2018-07-03T05:18:13.463Z,23.77
2018-07-03T05:19:13.371Z,23.81
2018-07-03T05:20:13.283Z,24.02
2018-07-03T05:21:13.191Z,24.14
2018-07-03T05:22:13.098Z,24.32
2018-07-03T05:23:13.006Z,24.45
2018-07-03T05:24:12.918Z,24.42
2018-07-03T05:25:13.126Z,24.51
2018-07-03T05:26:12.741Z,24.78
2018-07-03T05:27:12.654Z,24.88
2018-07-03T05:28:12.566Z,24.51
2018-07-03T05:29:12.476Z,24.73
2018-07-03T05:30:12.391Z,24.84
2018-07-03T05:31:12.300Z,25.25
2018-07-03T05:32:12.206Z,25.48
2018-07-03T05:33:12.115Z,25.31
2018-07-03T05:34:12.021Z,25.28
2018-07-03T05:35:11.941Z,24.84
2018-07-03T05:36:11.857Z,24.99
2018-07-03T05:37:11.785Z,25.35
2018-07-03T05:38:11.673Z,25.08
2018-07-03T05:39:11.581Z,25.32
2018-07-03T05:40:11.500Z,25.18
2018-07-03T05:41:11.410Z,25.40
2018-07-03T05:42:11.322Z,25.40
2018-07-03T05:43:11.234Z,25.65
2018-07-03T05:44:11.146Z,25.60
2018-07-03T05:45:11.063Z,25.63
2018-07-03T05:46:10.969Z,25.04
2018-07-03T05:47:10.877Z,25.01
2018-07-03T05:48:10.793Z,25.28
2018-07-03T05:49:10.710Z,25.63
2018-07-03T05:50:10.624Z,25.78
2018-07-03T05:51:10.533Z,26.06
2018-07-03T05:52:10.435Z,26.28
2018-07-03T05:53:10.357Z,26.26
2018-07-03T05:54:10.271Z,26.45
2018-07-03T05:55:10.180Z,26.41
2018-07-03T05:56:10.137Z,26.78
2018-07-03T05:57:10.014Z,26.58
2018-07-03T05:58:09.917Z,26.25
2018-07-03T05:59:09.828Z,26.38
2018-07-03T06:00:10.014Z,26.22
2018-07-03T06:01:09.662Z,26.33
2018-07-03T06:02:09.568Z,26.38
2018-07-03T06:03:09.489Z,26.41
2018-07-03T06:04:09.396Z,26.56
2018-07-03T06:05:09.305Z,26.48
2018-07-03T06:06:09.234Z,26.37
2018-07-03T06:07:09.140Z,25.81
2018-07-03T06:08:09.048Z,26.26
2018-07-03T06:09:09.030Z,26.23
2018-07-03T06:10:08.896Z,26.15
2018-07-03T06:11:08.793Z,26.55
2018-07-03T06:12:08.712Z,26.88
2018-07-03T06:13:08.620Z,27.52
2018-07-03T06:14:08.540Z,27.49
2018-07-03T06:15:08.447Z,27.52
2018-07-03T06:16:08.362Z,27.63
2018-07-03T06:17:08.306Z,27.95
2018-07-03T06:18:08.188Z,28.27
2018-07-03T06:19:08.109Z,28.33
2018-07-03T06:20:08.019Z,28.25
2018-07-03T06:21:07.930Z,28.76
2018-07-03T06:22:07.859Z,28.35
2018-07-03T06:23:07.764Z,28.76
2018-07-03T06:24:07.679Z,28.84
2018-07-03T06:25:07.590Z,28.78
2018-07-03T06:26:07.515Z,28.15
2018-07-03T06:27:07.424Z,28.69
2018-07-03T06:28:07.347Z,29.16
2018-07-03T06:29:07.317Z,29.12
2018-07-03T06:30:07.163Z,28.56
2018-07-03T06:31:07.083Z,28.64
2018-07-03T06:32:07.009Z,28.62
2018-07-03T06:33:06.919Z,28.63
2018-07-03T06:34:06.826Z,28.72
2018-07-03T06:35:06.749Z,28.48
2018-07-03T06:36:06.666Z,28.88
2018-07-03T06:37:06.575Z,28.88
2018-07-03T06:38:06.500Z,29.07
2018-07-03T06:39:06.409Z,28.26
2018-07-03T06:40:06.332Z,28.39
2018-07-03T06:41:06.239Z,27.37
2018-07-03T06:42:06.164Z,27.54
2018-07-03T06:43:06.072Z,28.11
2018-07-03T06:44:05.993Z,28.44
2018-07-03T06:45:05.914Z,28.91
2018-07-03T06:46:05.820Z,29.50
2018-07-03T06:47:05.741Z,30.02
2018-07-03T06:48:05.657Z,30.30
2018-07-03T06:49:05.578Z,30.62
2018-07-03T06:50:05.484Z,30.59
2018-07-03T06:51:05.406Z,30.47
2018-07-03T06:52:05.313Z,30.10
2018-07-03T06:53:05.233Z,29.97
2018-07-03T06:54:05.159Z,30.09
2018-07-03T06:55:05.070Z,29.24
2018-07-03T06:56:04.990Z,29.42
2018-07-03T06:57:04.910Z,29.42
2018-07-03T06:58:04.824Z,29.86
2018-07-03T06:59:04.745Z,30.19
2018-07-03T07:00:04.653Z,30.31
2018-07-03T07:01:04.574Z,30.53
2018-07-03T07:02:04.495Z,31.03
2018-07-03T07:03:04.401Z,30.85
2018-07-03T07:04:04.326Z,31.07
2018-07-03T07:05:04.261Z,31.21
2018-07-03T07:06:04.154Z,31.17
2018-07-03T07:07:04.075Z,30.80
2018-07-03T07:08:03.999Z,30.63
2018-07-03T07:09:03.999Z,30.75
2018-07-03T07:10:03.833Z,31.09
2018-07-03T07:11:03.755Z,31.44
2018-07-03T07:12:03.659Z,30.84
2018-07-03T07:13:03.582Z,30.00
2018-07-03T07:14:03.509Z,30.24
2018-07-03T07:15:03.460Z,30.09
2018-07-03T07:16:03.343Z,29.23
2018-07-03T07:17:03.261Z,28.63
2018-07-03T07:18:03.166Z,28.64
2018-07-03T07:19:03.088Z,28.94
2018-07-03T07:20:03.014Z,29.14
2018-07-03T07:21:02.926Z,29.68
2018-07-03T07:22:02.845Z,30.18
2018-07-03T07:23:02.773Z,30.65
2018-07-03T07:24:02.681Z,31.22
2018-07-03T07:25:02.591Z,31.06
2018-07-03T07:26:02.517Z,30.72
2018-07-03T07:27:02.438Z,30.73
2018-07-03T07:28:02.345Z,30.87
2018-07-03T07:29:02.266Z,31.10
2018-07-03T07:30:02.193Z,31.10
2018-07-03T07:31:02.114Z,30.91
2018-07-03T07:32:02.023Z,31.27
2018-07-03T07:33:01.944Z,30.92
2018-07-03T07:34:01.861Z,30.66
2018-07-03T07:35:01.773Z,30.21
2018-07-03T07:36:01.699Z,29.69
2018-07-03T07:37:01.617Z,29.90
2018-07-03T07:38:01.538Z,29.88
2018-07-03T07:39:01.448Z,29.01
2018-07-03T07:40:01.369Z,29.08
2018-07-03T07:41:01.293Z,29.44
2018-07-03T07:42:01.215Z,29.39
2018-07-03T07:43:01.125Z,29.94
2018-07-03T07:44:01.040Z,29.56
2018-07-03T07:45:00.975Z,29.61
2018-07-03T07:46:00.887Z,30.03
2018-07-03T07:47:00.797Z,30.12
2018-07-03T07:48:00.733Z,30.28
2018-07-03T07:49:00.647Z,30.63
2018-07-03T07:50:00.809Z,30.34
2018-07-03T07:51:00.469Z,30.84
2018-07-03T07:52:00.393Z,31.24
2018-07-03T07:53:00.314Z,30.88
2018-07-03T07:54:00.237Z,31.27
2018-07-03T07:55:00.152Z,31.36
2018-07-03T07:56:00.070Z,30.68
2018-07-03T07:56:59.990Z,31.06
2018-07-03T07:57:59.906Z,31.49
2018-07-03T07:58:59.828Z,31.74
2018-07-03T07:59:59.993Z,32.18
2018-07-03T08:00:59.678Z,31.73
2018-07-03T08:01:59.582Z,31.28
2018-07-03T08:02:59.504Z,31.40
2018-07-03T08:03:59.412Z,31.43
2018-07-03T08:04:59.333Z,31.59
2018-07-03T08:05:59.262Z,31.06
2018-07-03T08:06:59.184Z,31.54
2018-07-03T08:07:59.099Z,31.44
2018-07-03T08:08:59.008Z,31.09
2018-07-03T08:09:58.933Z,30.62
2018-07-03T08:10:58.854Z,30.91
2018-07-03T08:11:58.778Z,31.18
2018-07-03T08:12:58.700Z,30.90
2018-07-03T08:13:58.605Z,30.85
2018-07-03T08:14:58.527Z,30.59
2018-07-03T08:15:58.450Z,30.05
2018-07-03T08:16:58.373Z,29.56
2018-07-03T08:17:58.290Z,29.76
2018-07-03T08:18:58.199Z,29.29
2018-07-03T08:19:58.124Z,29.50
2018-07-03T08:20:58.044Z,29.72
2018-07-03T08:21:57.969Z,29.88
2018-07-03T08:22:57.879Z,30.05
2018-07-03T08:23:57.797Z,30.68
2018-07-03T08:24:57.719Z,30.69
2018-07-03T08:25:57.631Z,30.85
2018-07-03T08:26:57.555Z,31.00
2018-07-03T08:27:57.460Z,30.66
2018-07-03T08:28:57.386Z,30.30
2018-07-03T08:29:57.288Z,30.30
2018-07-03T08:30:57.208Z,30.68
2018-07-03T08:31:57.125Z,31.06
2018-07-03T08:32:57.047Z,31.40
2018-07-03T08:33:56.973Z,30.40
2018-07-03T08:34:56.872Z,30.44
2018-07-03T08:35:56.780Z,30.75
2018-07-03T08:36:56.692Z,30.85
2018-07-03T08:37:56.671Z,30.31
2018-07-03T08:38:56.524Z,30.65
2018-07-03T08:39:56.442Z,31.06
2018-07-03T08:40:56.351Z,31.73
2018-07-03T08:41:56.265Z,31.34
2018-07-03T08:42:56.226Z,31.51
2018-07-03T08:43:56.099Z,31.47
2018-07-03T08:44:56.007Z,31.61
2018-07-03T08:45:55.924Z,32.34
2018-07-03T08:46:55.833Z,32.65
2018-07-03T08:47:55.758Z,33.42
2018-07-03T08:48:55.667Z,33.43
2018-07-03T08:49:55.575Z,33.77
2018-07-03T08:50:55.492Z,33.49
2018-07-03T08:51:55.447Z,33.65
2018-07-03T08:52:55.325Z,34.08
2018-07-03T08:53:55.252Z,33.69
2018-07-03T08:54:55.160Z,33.62
2018-07-03T08:55:55.076Z,31.80
2018-07-03T08:56:54.987Z,32.07
2018-07-03T08:57:54.912Z,31.78
2018-07-03T08:58:54.832Z,31.09
2018-07-03T08:59:54.993Z,31.28
2018-07-03T09:00:54.738Z,31.37
2018-07-03T09:01:54.583Z,31.12
2018-07-03T09:02:54.493Z,31.46
2018-07-03T09:03:54.443Z,32.26
2018-07-03T09:04:54.341Z,32.85
2018-07-03T09:05:54.256Z,33.11
2018-07-03T09:06:54.166Z,33.23
2018-07-03T09:07:54.089Z,33.55
2018-07-03T09:08:54.010Z,33.67
2018-07-03T09:09:53.939Z,33.62
2018-07-03T09:10:53.857Z,32.73
2018-07-03T09:11:53.775Z,33.12
2018-07-03T09:12:53.685Z,32.55
2018-07-03T09:13:53.610Z,32.19
2018-07-03T09:14:53.532Z,31.92
2018-07-03T09:15:53.453Z,31.85
2018-07-03T09:16:53.373Z,32.12
2018-07-03T09:17:53.368Z,32.52
2018-07-03T09:18:53.213Z,33.14
2018-07-03T09:19:53.144Z,33.58
2018-07-03T09:20:53.062Z,33.17
2018-07-03T09:21:52.967Z,33.22
2018-07-03T09:22:52.902Z,32.75
2018-07-03T09:23:52.808Z,31.69
2018-07-03T09:24:52.729Z,30.97
2018-07-03T09:25:52.658Z,31.20
2018-07-03T09:26:52.577Z,31.34
2018-07-03T09:27:52.495Z,31.42
2018-07-03T09:28:52.416Z,31.28
2018-07-03T09:29:52.342Z,31.74
2018-07-03T09:30:52.263Z,32.30
2018-07-03T09:31:52.201Z,32.59
2018-07-03T09:32:52.113Z,32.63
2018-07-03T09:33:52.027Z,32.51
2018-07-03T09:34:51.949Z,32.12
2018-07-03T09:35:51.872Z,31.49
2018-07-03T09:36:51.795Z,30.70
2018-07-03T09:37:51.715Z,30.85
2018-07-03T09:38:51.633Z,31.20
2018-07-03T09:39:51.811Z,31.59
2018-07-03T09:40:51.478Z,31.87
2018-07-03T09:41:51.405Z,32.38
2018-07-03T09:42:51.340Z,32.95
2018-07-03T09:43:51.244Z,33.09
2018-07-03T09:44:51.166Z,32.74
2018-07-03T09:45:51.091Z,31.89
2018-07-03T09:46:51.013Z,32.53
2018-07-03T09:47:50.933Z,33.08
2018-07-03T09:48:50.904Z,32.83
2018-07-03T09:49:50.771Z,33.07
2018-07-03T09:50:50.694Z,31.93
2018-07-03T09:51:50.623Z,32.15
2018-07-03T09:52:50.543Z,32.21
2018-07-03T09:53:50.460Z,32.01
2018-07-03T09:54:50.431Z,32.14
2018-07-03T09:55:50.302Z,32.38
2018-07-03T09:56:50.227Z,33.27
2018-07-03T09:57:50.172Z,33.14
2018-07-03T09:58:50.071Z,33.77
2018-07-03T09:59:49.993Z,33.67
2018-07-03T10:00:49.928Z,33.39
2018-07-03T10:01:49.832Z,33.58
2018-07-03T10:02:49.753Z,34.02
2018-07-03T10:03:49.677Z,34.06
2018-07-03T10:04:49.600Z,33.87
2018-07-03T10:05:49.527Z,34.08
2018-07-03T10:06:49.461Z,33.80
2018-07-03T10:07:49.375Z,33.73
2018-07-03T10:08:49.298Z,33.39
2018-07-03T10:09:49.223Z,33.37
2018-07-03T10:10:49.145Z,33.52
2018-07-03T10:11:49.068Z,34.38
2018-07-03T10:12:48.990Z,34.90
2018-07-03T10:13:48.909Z,35.45
2018-07-03T10:14:48.830Z,34.67
2018-07-03T10:15:48.755Z,34.38
2018-07-03T10:16:48.676Z,33.58
2018-07-03T10:17:48.595Z,32.78
2018-07-03T10:18:48.564Z,32.65
2018-07-03T10:19:48.447Z,32.22
2018-07-03T10:20:48.369Z,33.15
2018-07-03T10:21:48.295Z,33.79
2018-07-03T10:22:48.221Z,33.89
2018-07-03T10:23:48.137Z,34.42
2018-07-03T10:24:48.058Z,34.42
2018-07-03T10:25:47.987Z,33.67
2018-07-03T10:26:47.918Z,33.43
2018-07-03T10:27:47.840Z,34.30
2018-07-03T10:28:47.767Z,34.96
2018-07-03T10:29:47.678Z,34.88
2018-07-03T10:30:47.599Z,34.35
2018-07-03T10:31:47.546Z,32.53
2018-07-03T10:32:47.458Z,33.27
2018-07-03T10:33:47.376Z,33.59
2018-07-03T10:34:47.297Z,33.95
2018-07-03T10:35:47.235Z,34.17
2018-07-03T10:36:47.160Z,34.62
2018-07-03T10:37:47.082Z,34.92
2018-07-03T10:38:47.007Z,35.30
2018-07-03T10:39:47.181Z,35.61
2018-07-03T10:40:46.852Z,35.17
2018-07-03T10:41:46.779Z,34.35
2018-07-03T10:42:46.714Z,35.05
2018-07-03T10:43:46.638Z,35.22
2018-07-03T10:44:46.559Z,35.66
2018-07-03T10:45:46.488Z,35.44
2018-07-03T10:46:46.410Z,35.23
2018-07-03T10:47:46.350Z,35.27
2018-07-03T10:48:46.337Z,34.95
2018-07-03T10:49:46.189Z,33.84
2018-07-03T10:50:46.122Z,33.71
2018-07-03T10:51:46.041Z,33.80
2018-07-03T10:52:45.963Z,33.79
2018-07-03T10:53:45.903Z,34.05
2018-07-03T10:54:45.823Z,33.99
2018-07-03T10:55:45.747Z,34.55
2018-07-03T10:56:45.679Z,34.85
2018-07-03T10:57:45.603Z,34.71
2018-07-03T10:58:45.524Z,34.78
2018-07-03T10:59:45.460Z,34.71
2018-07-03T11:00:45.379Z,34.23
2018-07-03T11:01:45.296Z,34.39
2018-07-03T11:02:45.218Z,34.27
2018-07-03T11:03:45.171Z,34.73
2018-07-03T11:04:45.080Z,34.74
2018-07-03T11:05:45.064Z,34.57
2018-07-03T11:06:44.919Z,33.71
2018-07-03T11:07:44.852Z,33.61
2018-07-03T11:08:44.774Z,32.86
2018-07-03T11:09:44.700Z,33.23
2018-07-03T11:10:44.622Z,33.08
2018-07-03T11:11:44.552Z,34.05
2018-07-03T11:12:44.474Z,34.43
2018-07-03T11:13:44.429Z,34.88
2018-07-03T11:14:44.321Z,35.24
2018-07-03T11:15:44.242Z,35.30
2018-07-03T11:16:44.177Z,35.23
2018-07-03T11:17:44.094Z,35.14
2018-07-03T11:18:44.016Z,35.26
2018-07-03T11:19:44.012Z,35.37
2018-07-03T11:20:43.875Z,35.51
2018-07-03T11:21:43.793Z,35.86
2018-07-03T11:22:43.717Z,35.64
2018-07-03T11:23:43.639Z,35.19
2018-07-03T11:24:43.561Z,34.39
2018-07-03T11:25:43.502Z,33.77
2018-07-03T11:26:43.421Z,33.79
2018-07-03T11:27:43.336Z,33.69
2018-07-03T11:28:43.257Z,33.39
2018-07-03T11:29:43.186Z,33.39
2018-07-03T11:30:43.117Z,33.40
2018-07-03T11:31:43.041Z,34.10
2018-07-03T11:32:42.962Z,34.38
2018-07-03T11:33:42.919Z,34.71
2018-07-03T11:34:42.803Z,34.92
2018-07-03T11:35:42.741Z,35.48
2018-07-03T11:36:42.661Z,36.02
2018-07-03T11:37:42.589Z,36.40
2018-07-03T11:38:42.502Z,36.30
2018-07-03T11:39:42.421Z,36.25
2018-07-03T11:40:42.357Z,36.46
2018-07-03T11:41:42.280Z,36.54
2018-07-03T11:42:42.203Z,36.24
2018-07-03T11:43:42.122Z,36.00
2018-07-03T11:44:42.080Z,35.76
2018-07-03T11:45:41.983Z,34.67
2018-07-03T11:46:41.939Z,34.16
2018-07-03T11:47:41.824Z,34.32
2018-07-03T11:48:41.746Z,33.76
2018-07-03T11:49:41.662Z,33.83
2018-07-03T11:50:41.596Z,33.07
2018-07-03T11:51:41.522Z,33.02
2018-07-03T11:52:41.444Z,32.46
2018-07-03T11:53:41.425Z,32.22
2018-07-03T11:54:41.283Z,32.73
2018-07-03T11:55:41.220Z,32.49
2018-07-03T11:56:41.142Z,32.82
2018-07-03T11:57:41.068Z,33.24
2018-07-03T11:58:40.989Z,32.59
2018-07-03T11:59:40.905Z,32.59
2018-07-03T12:00:40.839Z,32.77
2018-07-03T12:01:40.794Z,33.39
2018-07-03T12:02:40.686Z,33.83
2018-07-03T12:03:40.609Z,33.37
2018-07-03T12:04:40.531Z,33.27
2018-07-03T12:05:40.449Z,33.11
2018-07-03T12:06:40.370Z,32.45
2018-07-03T12:07:40.292Z,31.78
2018-07-03T12:08:40.215Z,31.06
2018-07-03T12:09:40.140Z,30.40
2018-07-03T12:10:40.082Z,30.06
2018-07-03T12:11:39.996Z,29.71
2018-07-03T12:12:39.916Z,29.38
2018-07-03T12:13:39.833Z,29.32
2018-07-03T12:14:39.755Z,29.14
2018-07-03T12:15:39.682Z,28.81
2018-07-03T12:16:39.605Z,28.70
2018-07-03T12:17:39.522Z,28.19
2018-07-03T12:18:39.455Z,28.11
2018-07-03T12:19:39.450Z,28.30
2018-07-03T12:20:39.297Z,28.23
2018-07-03T12:21:39.222Z,28.22
2018-07-03T12:22:39.144Z,28.12
2018-07-03T12:23:39.062Z,27.95
2018-07-03T12:24:38.983Z,27.90
2018-07-03T12:25:38.910Z,27.85
2018-07-03T12:26:38.831Z,27.86
2018-07-03T12:27:38.755Z,27.95
2018-07-03T12:28:38.678Z,27.85
2018-07-03T12:29:38.594Z,27.65
2018-07-03T12:30:38.504Z,27.47
2018-07-03T12:31:38.432Z,27.65
2018-07-03T12:32:38.349Z,27.71
2018-07-03T12:33:38.272Z,27.87
2018-07-03T12:34:38.175Z,27.86
2018-07-03T12:35:38.099Z,27.89
2018-07-03T12:36:38.077Z,27.67
2018-07-03T12:37:37.936Z,27.42
2018-07-03T12:38:37.857Z,27.40
2018-07-03T12:39:37.761Z,27.54
2018-07-03T12:40:37.683Z,27.51
2018-07-03T12:41:37.597Z,27.47
2018-07-03T12:42:37.518Z,27.49
2018-07-03T12:43:37.426Z,27.55
2018-07-03T12:44:37.349Z,27.48
2018-07-03T12:45:37.253Z,27.51
2018-07-03T12:46:37.174Z,27.58
2018-07-03T12:47:37.090Z,27.73
2018-07-03T12:48:37.010Z,27.93
2018-07-03T12:49:36.916Z,28.04
2018-07-03T12:50:36.838Z,27.83
2018-07-03T12:51:36.757Z,27.83